Aérodrome :







RETROUVEZ-NOUS SUR...

 
LOGIN :

S'inscrire | Disclaimer

   EN    FR    IT 

 









Légende :    VFR   VFR Marginal   IFR   IFR Intensif   IFR Très Intensif
Visi : 
Plafond : 
>= 8 km
>= 3000ft
5 à 8 km
1000 à 3000 ft
1500m à 5 km
500 à 1000 ft
800 à 1500m
200 à 500 ft
< 800m
< 200 ft
Symboles :   Orages  Brouillard  Fortes neiges  Fortes précipitations  Vent > 20 kt






- Altitude de l'aérodrome : 38 ft
- Code IATA : TAB


TTCP - Crown Point Int.

DERNIER METAR :
  • 260100Z 07003KT 9999 FEW018 25/20 Q1014 NOSIG

METARs EXPIRÉS :
  • 260000Z 06003KT 9999 FEW018 25/20 Q1013 NOSIG
  • 252300Z 09006KT 9999 FEW018 26/21 Q1012 NOSIG

TAF TAF TTCP
Valide du 26 à 00h jusqu'au 27 à 00h UTC


252200Z 2600/2624 11005KT 9999 FEW016
BECMG 2612/2614 12012KT



MET'MAP, la Météo Aéronautique d'un coup d'oeil ! - Copyright ORBIFLY Décembre 2007 - Disclaimer

ORBIFLY MET'MAP TEAM :

Programmation & Développement : Alexandra Zaïnal
Sur une idée originale de : Baudouin d'Aumeries
Assistance à la programmation : Marc-Olivier Méhu
Soutien technique & logistique : Manuel Goepfert

Contact : metmap@orbifly.com




SOURCES & CREDITS :

   NOAA